Saint-Gedeon-De-Beauce, Canada
Current Conditions -  °F | °C
As of 2:19 PM on Wednesday 17 Dec 2014 (Local Time) from CYSC Reporting Station
Light Rain Light Rain  
Wind Chill: 34°   Ceiling: 200
Heat Index: 34°   Visibility: 4mi
Dew Point: 34°   Wind: 3mph
Humidity: 100%   Direction: 70°ENE
Pressure: 29.73"   Gusts: NA
Location:  45.85°N, 70.65°W
Report Text: CYSC 171919Z AUTO 07003KT 010V090 4SM -RA BR BKN002 BKN008 BKN013 OVC023 01/01 A2973 RMK SLP076
Loading
Personal Weather Stations






























Interactive Weather Map New forecast layout! Learn more

10-Day Weather Forecast

Advertisements
Track Severe Weather on mobile